Time;durP1;ratioP1;P1;durP2;ratioP2;P2;SDS_P1;SDS_P2;PMS_P1;PMS_P2;Temp;Humidity;BMP_temperature;BMP_pressure;BME280_temperature;BME280_humidity;BME280_pressure;Samples;Min_cycle;Max_cycle;Signal;HPM_P1;HPM_P2
2022/11/24 00:01:12;;;;;;;19.30;12.77;;;5.50;99.90;;;;;;5089822;28;20538;-64
2022/11/24 00:04:00;;;;;;;16.48;12.02;;;5.50;99.90;;;;;;5087029;28;20412;-58
2022/11/24 00:06:46;;;;;;;16.90;10.95;;;5.50;99.90;;;;;;5075855;28;20029;-56
2022/11/24 00:09:31;;;;;;;20.65;12.35;;;5.40;99.90;;;;;;5090645;28;20031;-58
2022/11/24 00:12:17;;;;;;;19.42;12.57;;;5.50;99.90;;;;;;5088484;28;20500;-59
2022/11/24 00:15:04;;;;;;;18.08;11.88;;;5.40;99.90;;;;;;5057755;28;20060;-58
2022/11/24 00:17:49;;;;;;;17.02;11.98;;;5.30;99.90;;;;;;5089448;28;20040;-58
2022/11/24 00:20:35;;;;;;;19.80;12.00;;;5.40;99.90;;;;;;5088562;28;20032;-56
2022/11/24 00:23:21;;;;;;;17.35;12.02;;;5.40;99.90;;;;;;5093669;28;20028;-58
2022/11/24 00:26:10;;;;;;;15.20;11.05;;;5.40;99.90;;;;;;5091440;28;20027;-58
2022/11/24 00:28:59;;;;;;;16.15;11.57;;;5.40;99.90;;;;;;5087920;28;20511;-55
2022/11/24 00:31:45;;;;;;;18.05;12.13;;;5.40;99.90;;;;;;5082763;28;20044;-58
2022/11/24 00:34:31;;;;;;;17.38;12.68;;;5.40;99.90;;;;;;5072980;28;20056;-52
2022/11/24 00:37:17;;;;;;;19.33;12.52;;;5.40;99.90;;;;;;5087640;28;20044;-56
2022/11/24 00:40:03;;;;;;;18.00;12.77;;;5.40;99.90;;;;;;5088908;28;20020;-55
2022/11/24 00:42:49;;;;;;;20.23;12.88;;;5.40;99.90;;;;;;5074698;28;20670;-55
2022/11/24 00:45:35;;;;;;;16.98;13.25;;;5.40;99.90;;;;;;5086382;28;20028;-56
2022/11/24 00:48:21;;;;;;;18.83;13.85;;;5.40;99.90;;;;;;5088907;28;20044;-57
2022/11/24 00:51:09;;;;;;;21.20;15.45;;;5.40;99.90;;;;;;5086621;28;20107;-56
2022/11/24 00:53:59;;;;;;;24.17;16.48;;;5.40;99.90;;;;;;5088950;28;20035;-55
2022/11/24 00:56:46;;;;;;;25.65;18.95;;;5.40;99.90;;;;;;5091215;28;20024;-57
2022/11/24 00:59:32;;;;;;;21.75;17.13;;;5.40;99.90;;;;;;5092958;28;20036;-58
2022/11/24 01:02:18;;;;;;;20.63;15.75;;;5.30;99.90;;;;;;5076757;28;20111;-56
2022/11/24 01:05:04;;;;;;;21.25;17.98;;;5.30;99.90;;;;;;5092902;28;20016;-56
2022/11/24 01:07:50;;;;;;;22.30;17.30;;;5.30;99.90;;;;;;5092256;28;20027;-55
2022/11/24 01:10:36;;;;;;;28.85;18.90;;;5.20;99.90;;;;;;5078717;28;20031;-57
2022/11/24 01:13:22;;;;;;;23.05;16.95;;;5.30;99.90;;;;;;5094407;28;20035;-57
2022/11/24 01:16:19;;;;;;;24.02;17.42;;;5.20;99.90;;;;;;5090865;28;20445;-51
2022/11/24 01:19:05;;;;;;;28.65;17.98;;;5.20;99.90;;;;;;5093769;28;20519;-59
2022/11/24 01:21:51;;;;;;;20.98;15.77;;;5.20;99.90;;;;;;5092580;28;20553;-56
2022/11/24 01:24:37;;;;;;;25.30;16.40;;;5.10;99.90;;;;;;5093118;28;20549;-58
2022/11/24 01:27:23;;;;;;;23.75;14.02;;;5.10;99.90;;;;;;5074766;28;20527;-56
2022/11/24 01:30:10;;;;;;;19.45;14.35;;;5.10;99.90;;;;;;5067249;28;20098;-55
2022/11/24 01:32:55;;;;;;;17.90;13.02;;;5.20;99.90;;;;;;5093995;28;20081;-57
2022/11/24 01:35:41;;;;;;;18.17;12.73;;;5.20;99.90;;;;;;5087990;28;20036;-56
2022/11/24 01:38:27;;;;;;;21.88;12.65;;;5.30;99.90;;;;;;5092597;28;20134;-54
2022/11/24 01:41:20;;;;;;;18.20;12.43;;;5.30;99.90;;;;;;5075827;28;20050;-56
2022/11/24 01:44:28;;;;;;;16.02;13.27;;;5.20;99.90;;;;;;5091162;28;20093;-58
2022/11/24 01:47:34;;;;;;;19.88;12.90;;;5.10;99.90;;;;;;5088993;28;20027;-56
2022/11/24 01:50:21;;;;;;;17.40;13.13;;;5.20;99.90;;;;;;5078276;28;20111;-57
2022/11/24 01:53:08;;;;;;;17.77;13.40;;;5.10;99.90;;;;;;5091842;28;20059;-55
2022/11/24 01:55:54;;;;;;;18.27;13.55;;;5.10;99.90;;;;;;5078099;28;20032;-57
2022/11/24 01:58:43;;;;;;;17.83;13.00;;;5.10;99.90;;;;;;5090728;28;20032;-54
2022/11/24 02:01:30;;;;;;;19.17;13.63;;;5.10;99.90;;;;;;5077156;28;20115;-54
2022/11/24 02:04:22;;;;;;;17.65;11.85;;;5.10;99.90;;;;;;5077361;28;20094;-57
2022/11/24 02:07:10;;;;;;;20.35;12.80;;;5.20;99.90;;;;;;5074664;28;20024;-56
2022/11/24 02:10:01;;;;;;;17.45;12.27;;;5.30;99.90;;;;;;5087871;28;20032;-58
2022/11/24 02:12:50;;;;;;;16.10;11.07;;;5.20;99.90;;;;;;5091702;28;20419;-52
2022/11/24 02:15:36;;;;;;;15.73;12.15;;;5.30;99.90;;;;;;5075220;28;21525;-55
2022/11/24 02:18:22;;;;;;;19.38;12.00;;;5.30;99.90;;;;;;5091478;28;20032;-53
2022/11/24 02:21:10;;;;;;;19.08;12.90;;;5.30;99.90;;;;;;5088360;28;20032;-57
2022/11/24 02:24:08;;;;;;;17.55;12.63;;;5.30;99.90;;;;;;5091952;28;20127;-52
2022/11/24 02:26:54;;;;;;;17.83;13.15;;;5.30;99.90;;;;;;5091556;28;20095;-59
2022/11/24 02:29:41;;;;;;;19.25;13.88;;;5.30;99.90;;;;;;5091029;28;20073;-55
2022/11/24 02:32:30;;;;;;;21.60;12.57;;;5.20;99.90;;;;;;5091954;28;20023;-56
2022/11/24 02:35:17;;;;;;;21.00;13.07;;;5.20;99.90;;;;;;5091220;28;20396;-56
2022/11/24 02:38:03;;;;;;;19.27;12.98;;;5.20;99.90;;;;;;5091813;28;20027;-59
2022/11/24 02:40:49;;;;;;;17.88;13.60;;;5.20;99.90;;;;;;5089110;28;20024;-59
2022/11/24 02:43:41;;;;;;;20.73;13.02;;;5.30;99.90;;;;;;5090686;28;20420;-58
2022/11/24 02:46:27;;;;;;;20.65;13.40;;;5.20;99.90;;;;;;5089852;28;20113;-58
2022/11/24 02:49:13;;;;;;;18.30;13.48;;;5.20;99.90;;;;;;5090829;28;20070;-58
2022/11/24 02:51:59;;;;;;;20.40;13.65;;;5.20;99.90;;;;;;5073096;28;20035;-58
2022/11/24 02:54:45;;;;;;;19.55;13.43;;;5.20;99.90;;;;;;5075351;28;20099;-58
2022/11/24 02:57:31;;;;;;;20.10;13.88;;;5.20;99.90;;;;;;5091103;28;20042;-59
2022/11/24 03:00:17;;;;;;;21.65;13.77;;;5.30;99.90;;;;;;5089244;28;20024;-53
2022/11/24 03:03:03;;;;;;;16.63;13.02;;;5.30;99.90;;;;;;5089344;28;20066;-58
2022/11/24 03:05:49;;;;;;;17.35;13.65;;;5.30;99.90;;;;;;5075430;28;20035;-56
2022/11/24 03:08:35;;;;;;;18.63;13.55;;;5.30;99.90;;;;;;5091302;28;20031;-55
2022/11/24 03:11:21;;;;;;;17.83;14.40;;;5.40;99.90;;;;;;5088121;28;20029;-56
2022/11/24 03:14:07;;;;;;;19.38;14.00;;;5.30;99.90;;;;;;5091055;28;20024;-58
2022/11/24 03:16:53;;;;;;;22.80;15.15;;;5.40;99.90;;;;;;5089533;28;20028;-58
2022/11/24 03:19:39;;;;;;;19.80;14.88;;;5.40;99.90;;;;;;5090392;28;20119;-55
2022/11/24 03:22:25;;;;;;;20.73;14.30;;;5.40;99.90;;;;;;5072964;28;20429;-57
2022/11/24 03:25:11;;;;;;;22.20;14.00;;;5.40;99.90;;;;;;5074728;28;20032;-58
2022/11/24 03:27:57;;;;;;;20.38;14.18;;;5.50;99.90;;;;;;5090977;28;20473;-52
2022/11/24 03:30:43;;;;;;;20.92;15.38;;;5.40;99.90;;;;;;5070549;28;20028;-59
2022/11/24 03:33:29;;;;;;;20.25;14.98;;;5.40;99.90;;;;;;5090547;28;20032;-58
2022/11/24 03:36:15;;;;;;;22.08;15.20;;;5.50;99.90;;;;;;5090357;28;20039;-54
2022/11/24 03:39:01;;;;;;;20.38;13.63;;;5.40;99.90;;;;;;5087183;28;20020;-52
2022/11/24 03:41:50;;;;;;;23.95;16.45;;;5.50;99.90;;;;;;5087524;28;20032;-55
2022/11/24 03:44:36;;;;;;;17.63;15.18;;;5.50;99.90;;;;;;5072675;28;20016;-55
2022/11/24 03:47:21;;;;;;;22.63;14.82;;;5.50;99.90;;;;;;5091288;28;20388;-53
2022/11/24 03:50:08;;;;;;;19.75;14.30;;;5.40;99.90;;;;;;5067566;28;20029;-56
2022/11/24 03:52:54;;;;;;;21.02;14.30;;;5.30;99.90;;;;;;5088548;28;20047;-55
2022/11/24 03:55:42;;;;;;;18.60;15.30;;;5.30;99.90;;;;;;5085350;28;20042;-58
2022/11/24 03:58:29;;;;;;;19.80;13.93;;;5.30;99.90;;;;;;5085973;28;20384;-54
2022/11/24 04:01:15;;;;;;;20.25;15.00;;;5.30;99.90;;;;;;5086307;28;20385;-57
2022/11/24 04:04:01;;;;;;;20.50;15.38;;;5.10;99.90;;;;;;5061712;28;20020;-56
2022/11/24 04:06:46;;;;;;;22.55;15.27;;;5.20;99.90;;;;;;5062279;28;20082;-56
2022/11/24 04:09:32;;;;;;;21.08;14.65;;;5.10;99.90;;;;;;5090135;28;20016;-57
2022/11/24 04:15:23;;;;;;;18.88;13.70;;;5.10;99.90;;;;;;5074947;28;20020;-60
2022/11/24 04:18:10;;;;;;;21.35;14.80;;;5.20;99.90;;;;;;5082660;28;20032;-58
2022/11/24 04:20:56;;;;;;;20.08;14.45;;;5.20;99.90;;;;;;5074555;28;20036;-61
2022/11/24 04:23:42;;;;;;;19.58;14.80;;;5.20;99.90;;;;;;5089132;28;20531;-58
2022/11/24 04:26:28;;;;;;;21.80;15.05;;;5.30;99.90;;;;;;5069836;28;20106;-60
2022/11/24 04:29:14;;;;;;;22.73;17.55;;;5.30;99.90;;;;;;5090738;28;20043;-60
2022/11/24 04:32:00;;;;;;;20.08;14.95;;;5.40;99.90;;;;;;5092967;28;20039;-60
2022/11/24 04:34:46;;;;;;;17.48;13.88;;;5.50;99.90;;;;;;5079134;28;20024;-62
2022/11/24 04:37:33;;;;;;;18.92;13.98;;;5.50;99.90;;;;;;5079909;28;20488;-61
2022/11/24 04:40:19;;;;;;;20.90;15.50;;;5.50;99.90;;;;;;5091656;28;20112;-59
2022/11/24 04:43:05;;;;;;;21.20;14.18;;;5.50;99.90;;;;;;5079398;28;20027;-60
2022/11/24 04:45:51;;;;;;;18.20;13.55;;;5.50;99.90;;;;;;5093381;28;20108;-60
2022/11/24 04:48:37;;;;;;;20.45;14.73;;;5.60;99.90;;;;;;5077491;28;20027;-59
2022/11/24 04:51:23;;;;;;;18.38;13.50;;;5.60;99.90;;;;;;5087943;28;20035;-58
2022/11/24 04:54:11;;;;;;;18.90;13.52;;;5.60;99.90;;;;;;5087519;28;20085;-60
2022/11/24 04:56:57;;;;;;;16.17;12.05;;;5.60;99.90;;;;;;5089023;28;20027;-58
2022/11/24 04:59:43;;;;;;;15.57;12.38;;;5.70;99.90;;;;;;5093177;28;20028;-59
2022/11/24 05:02:29;;;;;;;16.33;12.02;;;5.70;99.90;;;;;;5078344;28;20027;-59
2022/11/24 05:05:15;;;;;;;12.80;11.40;;;5.70;99.90;;;;;;5060601;28;20020;-59
2022/11/24 05:08:01;;;;;;;17.10;12.80;;;5.70;99.90;;;;;;5093265;28;20024;-57
2022/11/24 05:10:46;;;;;;;18.77;13.48;;;5.70;99.90;;;;;;5090052;28;20024;-58
2022/11/24 05:13:33;;;;;;;19.17;12.13;;;5.70;99.90;;;;;;5062165;28;20492;-59
2022/11/24 05:16:19;;;;;;;18.30;12.18;;;5.80;99.90;;;;;;5089590;28;20035;-63
2022/11/24 05:19:05;;;;;;;20.85;13.75;;;5.80;99.90;;;;;;5065329;28;20148;-59
2022/11/24 05:21:53;;;;;;;18.27;13.20;;;5.80;99.90;;;;;;5076400;28;20066;-58
2022/11/24 05:24:39;;;;;;;19.30;13.13;;;5.80;99.90;;;;;;5092455;28;20269;-59
2022/11/24 05:27:25;;;;;;;18.20;12.93;;;5.80;99.90;;;;;;5078465;28;20048;-60
2022/11/24 05:30:11;;;;;;;15.38;13.20;;;5.80;99.90;;;;;;5092816;28;20055;-57
2022/11/24 05:32:57;;;;;;;18.15;13.73;;;5.90;99.90;;;;;;5092775;28;20560;-61
2022/11/24 05:35:45;;;;;;;18.90;12.18;;;5.90;99.90;;;;;;5090283;28;20028;-58
2022/11/24 05:38:32;;;;;;;15.45;11.45;;;5.90;99.90;;;;;;5092339;28;20081;-60
2022/11/24 05:41:17;;;;;;;16.08;11.95;;;5.90;99.90;;;;;;5071620;28;20078;-56
2022/11/24 05:44:04;;;;;;;37.05;22.75;;;5.90;99.90;;;;;;5078909;28;20028;-59
2022/11/24 05:46:50;;;;;;;18.63;13.25;;;5.90;99.90;;;;;;5073806;28;20396;-61
2022/11/24 05:49:36;;;;;;;17.20;11.30;;;5.90;99.90;;;;;;5090393;28;20032;-61
2022/11/24 05:52:22;;;;;;;17.00;13.40;;;5.90;99.90;;;;;;5092557;28;20103;-60
2022/11/24 05:55:13;;;;;;;18.60;11.52;;;5.90;99.90;;;;;;5091635;28;20032;-61
2022/11/24 05:58:07;;;;;;;16.13;12.15;;;5.90;99.90;;;;;;5091480;28;20135;-60
2022/11/24 06:00:53;;;;;;;16.50;12.43;;;5.90;99.90;;;;;;5093023;28;20024;-58
2022/11/24 06:03:38;;;;;;;17.38;12.10;;;6.00;99.90;;;;;;5092597;28;20017;-60
2022/11/24 06:06:24;;;;;;;14.63;12.15;;;6.00;99.90;;;;;;5090232;28;20063;-56
2022/11/24 06:09:10;;;;;;;16.80;12.57;;;6.00;99.90;;;;;;5073174;28;20024;-55
2022/11/24 06:11:56;;;;;;;16.25;11.57;;;5.90;99.90;;;;;;5062699;28;20073;-60
2022/11/24 06:14:42;;;;;;;20.40;11.13;;;6.00;99.90;;;;;;5075688;28;20522;-57
2022/11/24 06:17:28;;;;;;;18.30;11.05;;;6.00;99.90;;;;;;5091411;28;20185;-58
2022/11/24 06:20:14;;;;;;;17.73;11.07;;;5.90;99.90;;;;;;5091030;28;20054;-61
2022/11/24 06:23:00;;;;;;;15.93;10.55;;;5.90;99.90;;;;;;5089847;28;20396;-57
2022/11/24 06:25:46;;;;;;;17.33;10.98;;;6.00;99.90;;;;;;5089763;28;20024;-58
2022/11/24 06:28:32;;;;;;;16.67;11.50;;;6.00;99.90;;;;;;5076175;28;20024;-60
2022/11/24 06:31:18;;;;;;;17.30;11.15;;;6.00;99.90;;;;;;5090149;28;20024;-58
2022/11/24 06:34:10;;;;;;;16.02;11.55;;;6.00;99.90;;;;;;5091112;28;20028;-56
2022/11/24 06:36:56;;;;;;;18.00;10.73;;;6.00;99.90;;;;;;5090696;28;20105;-60
2022/11/24 06:39:42;;;;;;;16.05;10.50;;;6.00;99.90;;;;;;5076680;28;20039;-56
2022/11/24 06:42:28;;;;;;;17.00;10.57;;;6.00;99.90;;;;;;5076503;28;20107;-59
2022/11/24 06:45:14;;;;;;;18.67;10.90;;;6.10;99.90;;;;;;5089545;28;20025;-59
2022/11/24 06:48:00;;;;;;;26.63;13.23;;;6.20;99.90;;;;;;5063931;28;20500;-61
2022/11/24 06:50:45;;;;;;;25.77;12.95;;;6.10;99.90;;;;;;5090088;28;20073;-59
2022/11/24 06:53:36;;;;;;;19.70;12.40;;;6.20;99.90;;;;;;5090474;28;20547;-58
2022/11/24 06:56:22;;;;;;;23.38;12.05;;;6.20;99.90;;;;;;5069548;28;20054;-59
2022/11/24 06:59:19;;;;;;;23.48;11.68;;;6.20;99.90;;;;;;5075923;28;20024;-60
2022/11/24 07:02:05;;;;;;;18.58;10.68;;;6.20;99.90;;;;;;5076192;28;20044;-58
2022/11/24 07:04:51;;;;;;;18.63;11.50;;;6.30;99.90;;;;;;5088552;28;20099;-59
2022/11/24 07:07:37;;;;;;;20.35;12.27;;;6.20;99.90;;;;;;5087271;28;20396;-58
2022/11/24 07:10:23;;;;;;;29.60;12.15;;;6.20;99.90;;;;;;5073024;28;20036;-56
2022/11/24 07:13:09;;;;;;;32.05;13.60;;;6.30;99.90;;;;;;5075215;28;20115;-57
2022/11/24 07:15:55;;;;;;;36.35;14.40;;;6.30;99.90;;;;;;5088258;28;20020;-57
2022/11/24 07:18:42;;;;;;;33.38;13.38;;;6.30;99.90;;;;;;5075339;28;20020;-60
2022/11/24 07:21:29;;;;;;;24.25;11.60;;;6.30;99.90;;;;;;5075062;28;20103;-59
2022/11/24 07:24:15;;;;;;;20.48;9.27;;;6.40;99.90;;;;;;5089087;28;20066;-61
2022/11/24 07:27:01;;;;;;;20.38;11.50;;;6.50;99.90;;;;;;5088310;28;20028;-59
2022/11/24 07:29:47;;;;;;;22.42;10.88;;;6.50;99.90;;;;;;5061239;28;20047;-60
2022/11/24 07:32:33;;;;;;;24.67;11.38;;;6.40;99.90;;;;;;5089289;28;20103;-59
2022/11/24 07:35:19;;;;;;;21.42;11.18;;;6.50;99.90;;;;;;5086416;28;20110;-61
2022/11/24 07:38:05;;;;;;;23.75;12.02;;;6.60;99.90;;;;;;5076011;28;20032;-57
2022/11/24 07:40:50;;;;;;;23.08;11.82;;;6.60;99.90;;;;;;5089345;28;20024;-61
2022/11/24 07:43:37;;;;;;;48.95;16.05;;;6.60;99.90;;;;;;5090196;28;20095;-60
2022/11/24 07:46:23;;;;;;;67.72;21.98;;;6.60;99.90;;;;;;5082283;28;20032;-59
2022/11/24 07:49:09;;;;;;;55.42;19.17;;;6.60;99.90;;;;;;5088892;28;20024;-59
2022/11/24 07:51:55;;;;;;;45.92;16.05;;;6.70;99.90;;;;;;5061933;28;20112;-59
2022/11/24 07:54:41;;;;;;;44.60;16.52;;;6.70;99.90;;;;;;5090995;28;20055;-59
2022/11/24 07:57:30;;;;;;;44.70;18.83;;;6.70;99.90;;;;;;5087626;28;20028;-61
2022/11/24 08:00:16;;;;;;;40.67;16.58;;;6.70;99.90;;;;;;5087210;28;20035;-58
2022/11/24 08:03:02;;;;;;;29.92;14.98;;;6.70;99.90;;;;;;5060671;28;20481;-60
2022/11/24 08:05:56;;;;;;;46.03;17.33;;;6.70;99.90;;;;;;5075204;28;20034;-61
2022/11/24 08:08:42;;;;;;;22.38;12.32;;;6.70;99.90;;;;;;5087865;28;20016;-60
2022/11/24 08:11:30;;;;;;;24.63;10.40;;;6.70;99.90;;;;;;5089537;28;20036;-62
2022/11/24 08:14:16;;;;;;;31.50;13.18;;;6.80;99.90;;;;;;5076382;28;20023;-62
2022/11/24 08:17:02;;;;;;;24.88;11.30;;;6.80;99.90;;;;;;5075070;28;20028;-61
2022/11/24 08:19:48;;;;;;;28.17;11.93;;;6.90;99.90;;;;;;5086514;28;20035;-59
2022/11/24 08:22:33;;;;;;;32.47;12.73;;;6.90;99.90;;;;;;5073890;28;20119;-58
2022/11/24 08:25:23;;;;;;;35.30;13.23;;;6.90;99.90;;;;;;5085883;28;20043;-58
2022/11/24 08:28:09;;;;;;;31.75;14.52;;;6.90;99.90;;;;;;5090337;28;20070;-61
2022/11/24 08:31:06;;;;;;;29.08;13.90;;;7.00;99.90;;;;;;5089878;28;20029;-62
2022/11/24 08:33:54;;;;;;;21.25;11.85;;;7.00;99.90;;;;;;5082715;28;20032;-57
2022/11/24 08:36:40;;;;;;;22.42;11.20;;;7.10;99.90;;;;;;5075558;28;20099;-57
2022/11/24 08:39:26;;;;;;;38.13;13.93;;;7.20;99.90;;;;;;5072319;28;20031;-58
2022/11/24 08:42:12;;;;;;;37.50;12.68;;;7.20;99.90;;;;;;5073535;28;20057;-61
2022/11/24 08:44:58;;;;;;;24.33;11.57;;;7.30;99.90;;;;;;5074877;28;20534;-60
2022/11/24 08:47:43;;;;;;;33.88;12.77;;;7.40;99.90;;;;;;5088467;28;20426;-58
2022/11/24 08:50:29;;;;;;;31.30;11.88;;;7.50;99.90;;;;;;5071532;28;20399;-58
2022/11/24 08:53:16;;;;;;;21.30;9.93;;;7.60;99.90;;;;;;5089721;28;20038;-60
2022/11/24 08:56:04;;;;;;;18.85;10.98;;;7.60;99.90;;;;;;5096369;28;20020;-61
2022/11/24 08:58:50;;;;;;;27.17;13.38;;;7.70;99.90;;;;;;5097294;28;20106;-59
2022/11/24 09:01:36;;;;;;;20.70;11.48;;;7.70;99.90;;;;;;5080977;28;20091;-59
2022/11/24 09:04:22;;;;;;;38.05;12.05;;;7.70;99.90;;;;;;5098180;28;20028;-58
2022/11/24 09:07:08;;;;;;;24.83;11.38;;;7.80;99.90;;;;;;5097969;28;20023;-56
2022/11/24 09:09:54;;;;;;;29.08;12.88;;;7.80;99.90;;;;;;5096971;28;20112;-60
2022/11/24 09:12:42;;;;;;;19.52;10.10;;;7.80;99.90;;;;;;5076980;28;20028;-61
2022/11/24 09:15:28;;;;;;;22.30;11.45;;;7.90;99.90;;;;;;5092015;28;20503;-60
2022/11/24 09:18:14;;;;;;;19.77;10.88;;;7.90;99.90;;;;;;5093690;28;20516;-60
2022/11/24 09:21:09;;;;;;;17.77;9.43;;;8.00;99.90;;;;;;5093519;28;20598;-58
2022/11/24 09:23:56;;;;;;;17.90;9.20;;;8.10;99.90;;;;;;5086579;28;20031;-57
2022/11/24 09:26:42;;;;;;;18.13;8.20;;;8.00;99.90;;;;;;5088888;28;20434;-54
2022/11/24 09:29:27;;;;;;;17.92;9.00;;;8.00;99.90;;;;;;5073851;28;20033;-61
2022/11/24 09:32:13;;;;;;;16.98;8.50;;;7.90;99.90;;;;;;5065203;28;20107;-56
2022/11/24 09:34:59;;;;;;;17.38;7.80;;;8.00;99.90;;;;;;5093521;28;20028;-56
2022/11/24 09:37:47;;;;;;;16.52;7.43;;;7.90;99.90;;;;;;5093470;28;20028;-56
2022/11/24 09:40:33;;;;;;;16.90;7.78;;;7.90;99.90;;;;;;5073084;28;20055;-57
2022/11/24 09:43:44;;;;;;;20.73;8.52;;;7.90;99.90;;;;;;5073124;28;20025;-59
2022/11/24 09:47:05;;;;;;;15.25;7.88;;;7.90;99.90;;;;;;5075115;28;20090;-57
2022/11/24 09:50:17;;;;;;;26.40;9.02;;;7.90;99.90;;;;;;5074664;28;20106;-59
2022/11/24 09:53:28;;;;;;;17.73;8.48;;;8.00;99.90;;;;;;5074891;28;20041;-57
2022/11/24 09:56:22;;;;;;;25.15;9.95;;;7.90;99.90;;;;;;5058253;28;20025;-59
2022/11/24 09:59:20;;;;;;;23.27;9.52;;;8.00;99.90;;;;;;5077646;28;20473;-57
2022/11/24 10:02:11;;;;;;;17.73;9.38;;;8.00;99.90;;;;;;5078675;28;20036;-59
2022/11/24 10:04:57;;;;;;;20.33;11.10;;;8.10;99.90;;;;;;5094292;28;20546;-58
2022/11/24 10:07:57;;;;;;;24.45;10.90;;;8.10;99.90;;;;;;5093068;28;20028;-59
2022/11/24 10:10:56;;;;;;;18.40;10.95;;;8.10;99.90;;;;;;5093985;28;20159;-61
2022/11/24 10:13:48;;;;;;;19.40;10.77;;;8.10;99.90;;;;;;5092630;28;20028;-58
2022/11/24 10:16:42;;;;;;;26.17;9.85;;;8.10;99.90;;;;;;5077802;28;20035;-61
2022/11/24 10:19:52;;;;;;;32.30;15.05;;;8.10;99.90;;;;;;5093972;28;20074;-59
2022/11/24 10:23:08;;;;;;;25.98;15.40;;;8.10;99.90;;;;;;5077739;28;20527;-61
2022/11/24 10:25:57;;;;;;;;;;;8.20;99.90;;;;;;5074181;28;20016;-60
2022/11/24 10:28:54;;;;;;;26.50;14.63;;;8.30;99.90;;;;;;5057741;28;19951;-57
2022/11/24 10:31:42;;;;;;;22.50;11.40;;;8.40;99.90;;;;;;5076818;28;20123;-62
2022/11/24 10:34:50;;;;;;;24.45;12.10;;;8.50;99.90;;;;;;5077055;28;20028;-62
2022/11/24 10:37:41;;;;;;;19.95;11.35;;;8.70;99.90;;;;;;5092162;28;20077;-57
2022/11/24 10:40:43;;;;;;;20.48;9.60;;;8.80;99.90;;;;;;5091887;28;20065;-61
2022/11/24 10:43:29;;;;;;;26.55;11.18;;;9.10;99.90;;;;;;5093436;28;20026;-61
2022/11/24 10:46:27;;;;;;;30.48;13.32;;;9.10;99.90;;;;;;5093269;28;20561;-60
2022/11/24 10:49:27;;;;;;;21.75;12.27;;;9.30;99.90;;;;;;5092203;28;20106;-60
2022/11/24 10:52:15;;;;;;;24.92;12.15;;;9.30;99.90;;;;;;5092406;28;20036;-63
2022/11/24 10:55:04;;;;;;;28.40;10.73;;;9.40;99.90;;;;;;5077434;28;20492;-61
2022/11/24 10:57:50;;;;;;;25.10;8.43;;;9.50;99.90;;;;;;5091977;28;20492;-60
2022/11/24 11:00:36;;;;;;;25.90;9.40;;;9.50;99.90;;;;;;5092632;28;20039;-61
2022/11/24 11:03:25;;;;;;;27.42;9.70;;;9.50;99.90;;;;;;5063457;28;20434;-58
2022/11/24 11:06:23;;;;;;;33.22;9.75;;;9.40;99.90;;;;;;5063020;28;20123;-64
2022/11/24 11:09:09;;;;;;;26.17;13.45;;;9.40;99.90;;;;;;5077604;28;20052;-55
2022/11/24 11:11:55;;;;;;;24.05;9.90;;;9.20;99.90;;;;;;5091407;28;20492;-60
2022/11/24 11:14:41;;;;;;;19.63;8.75;;;9.20;99.90;;;;;;5077984;28;20035;-57
2022/11/24 11:17:37;;;;;;;17.55;8.82;;;9.10;99.90;;;;;;5091773;28;20496;-60
2022/11/24 11:20:31;;;;;;;21.15;9.25;;;9.20;99.90;;;;;;5091697;28;20028;-62
2022/11/24 11:23:35;;;;;;;22.08;8.30;;;9.30;99.90;;;;;;5093214;28;20024;-59
2022/11/24 11:26:26;;;;;;;24.97;9.03;;;9.30;99.90;;;;;;5057297;28;20029;-62
2022/11/24 11:29:15;;;;;;;28.08;9.45;;;9.20;99.90;;;;;;5074295;28;20018;-58
2022/11/24 11:32:14;;;;;;;19.85;9.07;;;9.20;99.90;;;;;;5091979;28;20024;-60
2022/11/24 11:35:00;;;;;;;22.92;8.15;;;9.50;99.90;;;;;;5077207;28;20376;-55
2022/11/24 11:37:48;;;;;;;17.27;8.85;;;9.70;99.90;;;;;;5091882;28;20032;-53
2022/11/24 11:40:35;;;;;;;25.95;9.02;;;9.90;99.90;;;;;;5091902;28;20070;-56
2022/11/24 11:43:27;;;;;;;17.50;8.50;;;10.00;99.90;;;;;;5078145;28;20079;-56
2022/11/24 11:46:17;;;;;;;18.95;9.32;;;10.00;99.90;;;;;;5092716;28;20023;-61
2022/11/24 11:49:03;;;;;;;23.20;8.98;;;9.70;99.90;;;;;;5091477;28;20103;-58
2022/11/24 11:52:30;;;;;;;22.58;8.38;;;9.80;99.90;;;;;;5078681;28;20036;-61
2022/11/24 11:55:32;;;;;;;20.77;8.20;;;9.80;99.90;;;;;;5107310;28;20032;-62
2022/11/24 11:58:39;;;;;;;23.52;8.27;;;9.60;99.90;;;;;;5105970;28;20092;-61
2022/11/24 12:01:40;;;;;;;20.85;8.48;;;9.60;99.90;;;;;;5105996;28;20012;-62
2022/11/24 12:04:34;;;;;;;24.63;8.50;;;9.50;99.90;;;;;;5105125;28;20389;-58
2022/11/24 12:07:35;;;;;;;27.10;9.85;;;9.50;99.90;;;;;;5106448;28;20035;-67
2022/11/24 12:10:49;;;;;;;21.67;8.52;;;9.40;99.90;;;;;;5094195;28;20032;-66
2022/11/24 12:13:57;;;;;;;24.77;9.27;;;9.40;99.90;;;;;;5090196;28;20042;-63
2022/11/24 12:17:15;;;;;;;24.27;8.70;;;9.40;99.90;;;;;;5089146;28;20024;-60
2022/11/24 12:20:17;;;;;;;23.50;8.88;;;9.40;99.90;;;;;;5074740;28;20016;-60
2022/11/24 12:23:26;;;;;;;15.77;6.78;;;9.60;99.90;;;;;;5089215;28;20361;-59
2022/11/24 12:26:44;;;;;;;17.95;7.13;;;9.60;99.90;;;;;;5089083;28;20040;-52
2022/11/24 12:29:54;;;;;;;20.92;6.72;;;9.70;99.90;;;;;;5075397;28;20021;-56
2022/11/24 12:33:24;;;;;;;23.13;7.38;;;9.70;99.90;;;;;;5089585;28;20028;-53
2022/11/24 12:36:51;;;;;;;20.05;7.53;;;9.70;99.90;;;;;;5088080;28;20032;-58
2022/11/24 12:39:43;;;;;;;19.02;6.10;;;9.70;99.90;;;;;;4984365;28;20023;-57
2022/11/24 12:42:54;;;;;;;18.88;6.18;;;9.60;99.90;;;;;;5087671;28;20095;-60
2022/11/24 12:46:05;;;;;;;20.80;7.35;;;9.60;99.90;;;;;;5090156;28;20016;-57
2022/11/24 12:49:15;;;;;;;27.50;8.23;;;9.60;99.90;;;;;;5088558;28;20048;-57
2022/11/24 12:52:24;;;;;;;19.33;6.65;;;9.60;99.90;;;;;;5092324;28;20397;-57
2022/11/24 12:55:19;;;;;;;19.42;6.35;;;9.70;99.90;;;;;;5087415;28;20211;-59
2022/11/24 12:58:16;;;;;;;19.70;8.02;;;9.80;99.90;;;;;;5087893;28;20060;-60
2022/11/24 13:01:21;;;;;;;23.58;7.80;;;9.90;99.90;;;;;;5091752;28;20020;-63
2022/11/24 13:04:13;;;;;;;36.58;10.68;;;10.00;99.90;;;;;;5093438;28;20515;-61
2022/11/24 13:07:09;;;;;;;21.02;7.18;;;10.10;99.90;;;;;;5091302;28;20041;-62
2022/11/24 13:10:23;;;;;;;24.23;7.45;;;10.10;99.90;;;;;;5075396;28;20384;-61
2022/11/24 13:13:12;;;;;;;28.52;7.65;;;10.20;99.90;;;;;;5092086;28;20031;-63
2022/11/24 13:15:57;;;;;;;29.25;7.15;;;10.20;99.90;;;;;;5093178;28;20018;-61
2022/11/24 13:18:57;;;;;;;22.95;6.97;;;10.20;99.90;;;;;;5091335;28;20020;-62
2022/11/24 13:21:44;;;;;;;19.08;7.05;;;10.20;99.90;;;;;;5079609;28;20099;-64
2022/11/24 13:24:34;;;;;;;18.27;6.65;;;10.30;99.90;;;;;;5089541;28;20032;-62
2022/11/24 13:27:27;;;;;;;22.25;6.82;;;10.30;99.90;;;;;;5092381;28;20396;-63
2022/11/24 13:30:32;;;;;;;21.50;6.40;;;10.20;99.90;;;;;;5077790;28;20051;-61
2022/11/24 13:33:30;;;;;;;22.95;7.38;;;10.20;99.90;;;;;;5090523;28;20101;-64
2022/11/24 13:36:22;;;;;;;25.58;8.15;;;10.20;99.90;;;;;;5090784;28;20050;-61
2022/11/24 13:39:19;;;;;;;28.48;8.88;;;10.20;99.90;;;;;;5074332;28;20496;-61
2022/11/24 13:42:05;;;;;;;19.98;6.38;;;10.20;99.90;;;;;;5081264;28;20484;-63
2022/11/24 13:45:02;;;;;;;23.17;6.53;;;10.00;99.90;;;;;;5060456;28;20107;-61
2022/11/24 13:47:48;;;;;;;19.48;6.38;;;9.90;99.90;;;;;;5077809;28;20016;-62
2022/11/24 13:50:49;;;;;;;17.70;6.72;;;9.80;99.90;;;;;;5095020;28;20032;-61
2022/11/24 13:53:47;;;;;;;25.73;7.78;;;9.70;99.90;;;;;;5092784;28;20062;-62
2022/11/24 13:56:33;;;;;;;21.15;7.35;;;9.80;99.90;;;;;;5080953;28;20064;-62
2022/11/24 13:59:31;;;;;;;21.90;7.05;;;9.70;99.90;;;;;;5076435;28;20028;-62
2022/11/24 14:02:22;;;;;;;15.88;6.22;;;9.70;99.90;;;;;;5092358;28;20506;-62
2022/11/24 14:05:15;;;;;;;20.00;6.70;;;9.80;99.90;;;;;;5091212;28;20119;-64
2022/11/24 14:08:03;;;;;;;21.15;6.53;;;9.80;99.90;;;;;;5089925;28;20020;-62
2022/11/24 14:10:50;;;;;;;18.95;6.78;;;9.80;99.90;;;;;;5089848;28;20063;-63
2022/11/24 14:13:36;;;;;;;18.05;7.07;;;9.70;99.90;;;;;;5086722;28;20020;-64
2022/11/24 14:16:23;;;;;;;20.40;7.18;;;9.80;99.90;;;;;;5060920;28;20020;-63
2022/11/24 14:19:10;;;;;;;27.40;8.50;;;9.70;99.90;;;;;;5085773;28;20598;-63
2022/11/24 14:21:56;;;;;;;23.45;7.75;;;9.80;99.90;;;;;;5071922;28;20437;-64
2022/11/24 14:24:44;;;;;;;32.45;8.55;;;9.90;99.90;;;;;;5075986;28;20028;-65
2022/11/24 14:27:36;;;;;;;17.52;7.57;;;9.90;99.90;;;;;;5084842;28;20103;-55
2022/11/24 14:30:24;;;;;;;23.17;7.43;;;9.80;99.90;;;;;;5084247;28;20035;-55
2022/11/24 14:33:11;;;;;;;21.23;6.45;;;9.80;99.90;;;;;;5072267;28;20055;-58
2022/11/24 14:35:57;;;;;;;17.00;6.88;;;9.80;99.90;;;;;;5090328;28;20047;-57
2022/11/24 14:38:43;;;;;;;17.50;7.07;;;9.70;99.90;;;;;;5090038;28;20028;-62
2022/11/24 14:41:30;;;;;;;27.40;7.78;;;9.70;99.90;;;;;;5091042;28;20024;-58